Time;durP1;ratioP1;P1;durP2;ratioP2;P2;SDS_P1;SDS_P2;PMS_P1;PMS_P2;Temp;Humidity;BMP_temperature;BMP_pressure;BME280_temperature;BME280_humidity;BME280_pressure;Samples;Min_cycle;Max_cycle;Signal;HPM_P1;HPM_P2
2021/08/07 00:02:17;;;;;;;17.77;9.95;;;;;;;;;;5011449;28;20347;-49
2021/08/07 00:04:43;;;;;;;15.38;9.98;;;;;;;;;;5056146;28;20120;-58
2021/08/07 00:07:09;;;;;;;11.60;7.78;;;;;;;;;;5056341;28;20385;-58
2021/08/07 00:09:35;;;;;;;13.38;8.80;;;;;;;;;;5056556;28;20095;-58
2021/08/07 00:12:02;;;;;;;10.05;6.78;;;;;;;;;;5056339;28;20024;-58
2021/08/07 00:14:28;;;;;;;6.95;3.72;;;;;;;;;;5056560;28;20060;-59
2021/08/07 00:16:54;;;;;;;6.43;4.30;;;;;;;;;;5056458;28;20025;-58
2021/08/07 00:19:20;;;;;;;19.75;11.07;;;;;;;;;;5056227;28;20025;-52
2021/08/07 00:21:48;;;;;;;9.98;6.32;;;;;;;;;;5056277;28;20021;-58
2021/08/07 00:24:14;;;;;;;8.23;5.85;;;;;;;;;;5056174;28;20032;-57
2021/08/07 00:26:40;;;;;;;4.50;2.55;;;;;;;;;;5056080;28;20017;-59
2021/08/07 00:29:07;;;;;;;4.43;2.58;;;;;;;;;;5056223;28;20025;-59
2021/08/07 00:31:33;;;;;;;6.85;2.97;;;;;;;;;;5056075;28;20068;-57
2021/08/07 00:33:59;;;;;;;4.93;3.85;;;;;;;;;;5055922;28;20032;-55
2021/08/07 00:36:25;;;;;;;6.10;2.47;;;;;;;;;;5056012;28;20027;-58
2021/08/07 00:38:53;;;;;;;3.75;2.45;;;;;;;;;;5055734;28;20021;-59
2021/08/07 00:41:19;;;;;;;18.45;3.40;;;;;;;;;;5055807;28;20028;-59
2021/08/07 00:43:45;;;;;;;15.32;11.02;;;;;;;;;;5055859;28;20029;-57
2021/08/07 00:46:11;;;;;;;5.63;4.20;;;;;;;;;;5055841;28;20021;-58
2021/08/07 00:48:38;;;;;;;9.07;4.93;;;;;;;;;;5055530;28;20100;-54
2021/08/07 00:51:04;;;;;;;31.48;19.67;;;;;;;;;;5055561;28;20033;-54
2021/08/07 00:53:30;;;;;;;12.82;8.77;;;;;;;;;;5055510;28;20100;-52
2021/08/07 00:55:57;;;;;;;9.15;6.88;;;;;;;;;;5055591;28;20428;-55
2021/08/07 00:58:23;;;;;;;15.98;11.52;;;;;;;;;;5055714;28;20048;-54
2021/08/07 01:00:49;;;;;;;14.82;7.88;;;;;;;;;;5055308;28;20052;-55
2021/08/07 01:03:18;;;;;;;7.30;4.80;;;;;;;;;;5055232;28;20534;-53
2021/08/07 01:06:04;;;;;;;9.75;4.95;;;;;;;;;;5055315;28;20028;-52
2021/08/07 01:08:36;;;;;;;5.03;3.65;;;;;;;;;;5051415;28;20045;-55
2021/08/07 01:11:06;;;;;;;32.67;23.05;;;;;;;;;;5055513;28;20377;-54
2021/08/07 01:13:36;;;;;;;30.23;17.90;;;;;;;;;;5055401;28;20059;-54
2021/08/07 01:16:17;;;;;;;28.73;17.42;;;;;;;;;;5055158;28;20465;-53
2021/08/07 01:18:44;;;;;;;26.52;16.02;;;;;;;;;;5055229;28;20075;-53
2021/08/07 01:21:13;;;;;;;14.50;10.07;;;;;;;;;;5055156;28;20025;-55
2021/08/07 01:23:52;;;;;;;5.30;4.13;;;;;;;;;;5055079;28;20033;-54
2021/08/07 01:26:24;;;;;;;8.10;4.80;;;;;;;;;;5054891;28;20507;-54
2021/08/07 01:28:51;;;;;;;8.95;6.90;;;;;;;;;;5055002;28;20020;-55
2021/08/07 01:31:18;;;;;;;8.23;5.32;;;;;;;;;;5053711;28;20396;-56
2021/08/07 01:33:45;;;;;;;6.80;4.90;;;;;;;;;;5054736;28;20481;-54
2021/08/07 01:36:13;;;;;;;22.40;15.55;;;;;;;;;;5054798;28;20067;-54
2021/08/07 01:38:42;;;;;;;11.07;8.02;;;;;;;;;;5054824;28;20104;-54
2021/08/07 01:41:15;;;;;;;15.40;9.65;;;;;;;;;;5053598;28;20032;-54
2021/08/07 01:43:41;;;;;;;14.63;10.63;;;;;;;;;;5054623;28;20069;-54
2021/08/07 01:46:07;;;;;;;23.75;16.33;;;;;;;;;;5054484;28;20467;-53
2021/08/07 01:48:40;;;;;;;24.80;16.55;;;;;;;;;;5054583;28;20037;-53
2021/08/07 01:51:16;;;;;;;10.63;6.82;;;;;;;;;;5054557;28;20033;-53
2021/08/07 01:53:44;;;;;;;10.35;5.38;;;;;;;;;;5054509;28;20087;-54
2021/08/07 01:56:19;;;;;;;8.85;5.80;;;;;;;;;;5054613;28;20021;-53
2021/08/07 01:58:46;;;;;;;6.85;4.25;;;;;;;;;;5054320;28;20526;-54
2021/08/07 02:01:13;;;;;;;8.57;5.38;;;;;;;;;;5053299;28;20438;-53
2021/08/07 02:03:40;;;;;;;12.10;5.35;;;;;;;;;;5054044;28;20083;-53
2021/08/07 02:06:07;;;;;;;6.38;4.75;;;;;;;;;;5054217;28;20442;-54
2021/08/07 02:08:37;;;;;;;7.15;4.07;;;;;;;;;;5054262;28;20025;-54
2021/08/07 02:11:04;;;;;;;6.65;3.55;;;;;;;;;;5053068;28;20027;-55
2021/08/07 02:13:30;;;;;;;7.57;3.60;;;;;;;;;;5054084;28;20032;-53
2021/08/07 02:15:56;;;;;;;8.23;4.72;;;;;;;;;;5054194;28;20430;-54
2021/08/07 02:18:24;;;;;;;10.07;4.70;;;;;;;;;;5053748;28;20036;-54
2021/08/07 02:20:50;;;;;;;13.32;7.57;;;;;;;;;;5054181;28;20021;-53
2021/08/07 02:23:17;;;;;;;7.90;5.20;;;;;;;;;;5053810;28;20037;-54
2021/08/07 02:25:44;;;;;;;6.88;4.00;;;;;;;;;;5053926;28;20025;-53
2021/08/07 02:28:13;;;;;;;8.23;5.93;;;;;;;;;;5053781;28;20021;-53
2021/08/07 02:30:41;;;;;;;8.32;5.13;;;;;;;;;;5053687;28;20413;-53
2021/08/07 02:33:07;;;;;;;11.57;7.75;;;;;;;;;;5054008;28;20024;-54
2021/08/07 02:35:34;;;;;;;26.27;15.68;;;;;;;;;;5052670;28;20384;-54
2021/08/07 02:38:00;;;;;;;23.15;15.45;;;;;;;;;;5053949;28;20028;-54
2021/08/07 02:40:27;;;;;;;23.60;15.00;;;;;;;;;;5053803;28;20021;-54
2021/08/07 02:42:54;;;;;;;21.02;11.77;;;;;;;;;;5053563;28;20025;-54
2021/08/07 02:45:20;;;;;;;20.83;12.18;;;;;;;;;;5053756;28;20397;-55
2021/08/07 02:47:46;;;;;;;17.88;10.25;;;;;;;;;;5053569;28;20017;-54
2021/08/07 02:50:13;;;;;;;13.73;7.78;;;;;;;;;;5053765;28;20504;-54
2021/08/07 02:52:39;;;;;;;9.40;5.53;;;;;;;;;;5053518;28;20057;-54
2021/08/07 02:55:06;;;;;;;9.30;4.90;;;;;;;;;;5053587;28;20029;-55
2021/08/07 02:57:32;;;;;;;10.02;6.15;;;;;;;;;;5053605;28;20491;-53
2021/08/07 02:59:58;;;;;;;12.93;7.05;;;;;;;;;;5053143;28;20128;-53
2021/08/07 03:02:25;;;;;;;17.65;8.70;;;;;;;;;;5053357;28;20032;-52
2021/08/07 03:04:51;;;;;;;16.85;6.40;;;;;;;;;;5053282;28;20029;-53
2021/08/07 03:07:17;;;;;;;13.90;8.38;;;;;;;;;;5053349;28;20025;-53
2021/08/07 03:09:43;;;;;;;20.67;8.73;;;;;;;;;;5053219;28;20473;-52
2021/08/07 03:12:11;;;;;;;12.73;8.48;;;;;;;;;;5053056;28;20025;-54
2021/08/07 03:14:38;;;;;;;17.42;8.65;;;;;;;;;;5053182;28;20017;-53
2021/08/07 03:17:04;;;;;;;16.42;8.18;;;;;;;;;;5053170;28;20028;-50
2021/08/07 03:19:31;;;;;;;16.15;8.10;;;;;;;;;;5053201;28;20022;-52
2021/08/07 03:21:57;;;;;;;11.38;7.50;;;;;;;;;;5053377;28;20458;-53
2021/08/07 03:24:23;;;;;;;13.93;7.97;;;;;;;;;;5053044;28;20040;-53
2021/08/07 03:26:49;;;;;;;13.57;7.20;;;;;;;;;;5053024;28;20021;-53
2021/08/07 03:29:17;;;;;;;11.07;7.10;;;;;;;;;;5053057;28;20377;-52
2021/08/07 03:31:44;;;;;;;14.18;6.65;;;;;;;;;;5053086;28;20028;-55
2021/08/07 03:34:10;;;;;;;12.45;6.22;;;;;;;;;;5053090;28;20478;-52
2021/08/07 03:36:36;;;;;;;11.23;6.38;;;;;;;;;;5052904;28;20108;-52
2021/08/07 03:39:04;;;;;;;8.75;6.63;;;;;;;;;;5051981;28;20033;-53
2021/08/07 03:41:30;;;;;;;15.10;7.07;;;;;;;;;;5052913;28;20099;-51
2021/08/07 03:43:56;;;;;;;14.25;6.60;;;;;;;;;;5052893;28;20039;-49
2021/08/07 03:46:22;;;;;;;12.55;6.65;;;;;;;;;;5053163;28;20062;-52
2021/08/07 03:48:48;;;;;;;11.02;6.75;;;;;;;;;;5052811;28;20036;-50
2021/08/07 03:51:14;;;;;;;11.45;6.80;;;;;;;;;;5052849;28;20036;-51
2021/08/07 03:53:40;;;;;;;14.93;7.47;;;;;;;;;;5053057;28;20406;-51
2021/08/07 03:56:06;;;;;;;18.60;11.73;;;;;;;;;;5052745;28;20021;-49
2021/08/07 03:58:32;;;;;;;13.55;8.98;;;;;;;;;;5052816;28;20029;-52
2021/08/07 04:00:58;;;;;;;11.02;7.43;;;;;;;;;;5052507;28;20258;-52
2021/08/07 04:03:25;;;;;;;15.02;7.53;;;;;;;;;;5052753;28;20033;-51
2021/08/07 04:05:51;;;;;;;12.60;6.85;;;;;;;;;;5052819;28;20470;-52
2021/08/07 04:08:17;;;;;;;9.00;6.47;;;;;;;;;;5052713;28;20118;-51
2021/08/07 04:10:43;;;;;;;13.23;8.73;;;;;;;;;;5052557;28;20021;-51
2021/08/07 04:13:09;;;;;;;18.23;9.95;;;;;;;;;;5051285;28;20021;-52
2021/08/07 04:15:35;;;;;;;8.50;6.22;;;;;;;;;;5052705;28;20029;-52
2021/08/07 04:18:01;;;;;;;10.23;5.70;;;;;;;;;;5052728;28;20021;-52
2021/08/07 04:20:29;;;;;;;9.27;5.28;;;;;;;;;;5052429;28;20025;-52
2021/08/07 04:22:55;;;;;;;7.80;5.22;;;;;;;;;;5052586;28;20095;-52
2021/08/07 04:25:26;;;;;;;7.50;5.25;;;;;;;;;;5054823;28;20533;-52
2021/08/07 04:27:52;;;;;;;9.35;5.03;;;;;;;;;;5056387;28;20043;-52
2021/08/07 04:30:18;;;;;;;7.00;4.88;;;;;;;;;;5056051;28;20450;-52
2021/08/07 04:32:44;;;;;;;6.75;4.63;;;;;;;;;;5056216;28;20029;-51
2021/08/07 04:35:11;;;;;;;19.17;10.52;;;;;;;;;;5055934;28;20071;-51
2021/08/07 04:37:49;;;;;;;240.45;167.05;;;;;;;;;;5055899;28;20487;-49
2021/08/07 04:40:15;;;;;;;71.72;46.30;;;;;;;;;;5055989;28;20054;-50
2021/08/07 04:42:41;;;;;;;72.65;42.90;;;;;;;;;;5056078;28;20028;-59
2021/08/07 04:45:07;;;;;;;161.80;112.43;;;;;;;;;;5055866;28;20029;-56
2021/08/07 04:47:34;;;;;;;114.70;81.60;;;;;;;;;;5055722;28;20025;-59
2021/08/07 04:50:00;;;;;;;28.42;15.75;;;;;;;;;;5055694;28;20040;-50
2021/08/07 04:52:26;;;;;;;12.85;6.78;;;;;;;;;;5055732;28;20107;-49
2021/08/07 04:54:52;;;;;;;8.63;3.72;;;;;;;;;;5055566;28;20525;-46
2021/08/07 04:57:18;;;;;;;12.43;8.90;;;;;;;;;;5055858;28;20032;-46
2021/08/07 04:59:44;;;;;;;197.05;125.03;;;;;;;;;;5055139;28;20521;-47
2021/08/07 05:02:10;;;;;;;70.53;29.90;;;;;;;;;;5055472;28;20115;-47
2021/08/07 05:04:36;;;;;;;80.95;53.05;;;;;;;;;;5055289;28;20025;-47
2021/08/07 05:07:02;;;;;;;11.38;7.47;;;;;;;;;;5055461;28;20029;-58
2021/08/07 05:09:28;;;;;;;10.65;6.82;;;;;;;;;;5055390;28;20100;-47
2021/08/07 05:11:55;;;;;;;69.78;53.72;;;;;;;;;;5055369;28;20083;-52
2021/08/07 05:14:21;;;;;;;15.27;8.15;;;;;;;;;;5055423;28;20035;-49
2021/08/07 05:16:47;;;;;;;32.38;21.10;;;;;;;;;;5055351;28;20017;-48
2021/08/07 05:19:13;;;;;;;25.17;18.35;;;;;;;;;;5055041;28;20031;-48
2021/08/07 05:21:39;;;;;;;23.30;14.25;;;;;;;;;;5055369;28;20021;-50
2021/08/07 05:24:07;;;;;;;40.85;32.20;;;;;;;;;;5055084;28;20120;-45
2021/08/07 05:26:33;;;;;;;45.60;33.00;;;;;;;;;;5055038;28;20047;-44
2021/08/07 05:28:59;;;;;;;12.43;8.15;;;;;;;;;;5055066;28;20103;-46
2021/08/07 05:31:25;;;;;;;10.77;5.53;;;;;;;;;;5053876;28;20473;-53
2021/08/07 05:33:51;;;;;;;5.40;3.28;;;;;;;;;;5055070;28;20025;-52
2021/08/07 05:36:17;;;;;;;7.20;3.42;;;;;;;;;;5054250;28;20040;-47
2021/08/07 05:38:43;;;;;;;8.63;4.22;;;;;;;;;;5054844;28;20052;-51
2021/08/07 05:41:10;;;;;;;8.93;4.22;;;;;;;;;;5054564;28;20025;-52
2021/08/07 05:43:36;;;;;;;9.13;4.10;;;;;;;;;;5054843;28;20457;-52
2021/08/07 05:46:02;;;;;;;12.88;3.60;;;;;;;;;;5054714;28;20060;-52
2021/08/07 05:48:28;;;;;;;8.93;3.75;;;;;;;;;;5054856;28;20365;-50
2021/08/07 05:50:54;;;;;;;21.38;4.20;;;;;;;;;;5054375;28;20017;-52
2021/08/07 05:53:20;;;;;;;20.23;5.13;;;;;;;;;;5054621;28;20025;-50
2021/08/07 05:55:46;;;;;;;26.45;5.28;;;;;;;;;;5054353;28;20025;-52
2021/08/07 05:58:12;;;;;;;12.00;3.85;;;;;;;;;;5053417;28;20123;-50
2021/08/07 06:00:38;;;;;;;11.60;3.35;;;;;;;;;;5054200;28;20053;-52
2021/08/07 06:03:04;;;;;;;3.53;2.08;;;;;;;;;;5054346;28;20274;-52
2021/08/07 06:05:30;;;;;;;8.30;2.65;;;;;;;;;;5053120;28;20154;-53
2021/08/07 06:07:56;;;;;;;4.80;2.03;;;;;;;;;;5054403;28;20021;-48
2021/08/07 06:10:22;;;;;;;5.38;1.83;;;;;;;;;;5054774;28;20017;-53
2021/08/07 06:12:49;;;;;;;2.90;1.60;;;;;;;;;;5054138;28;20083;-52
2021/08/07 06:15:15;;;;;;;2.00;1.80;;;;;;;;;;5054083;28;20029;-54
2021/08/07 06:17:45;;;;;;;2.13;1.35;;;;;;;;;;5054234;28;20098;-47
2021/08/07 06:20:13;;;;;;;1.37;1.27;;;;;;;;;;5053972;28;20083;-53
2021/08/07 06:22:42;;;;;;;6.40;1.40;;;;;;;;;;5053919;28;20021;-54
2021/08/07 06:25:08;;;;;;;2.10;1.40;;;;;;;;;;5053824;28;20162;-52
2021/08/07 06:27:39;;;;;;;3.47;1.50;;;;;;;;;;5053831;28;20021;-53
2021/08/07 06:30:08;;;;;;;2.08;1.20;;;;;;;;;;5053821;28;20112;-53
2021/08/07 06:32:34;;;;;;;2.25;1.50;;;;;;;;;;5053843;28;20513;-54
2021/08/07 06:35:00;;;;;;;1.83;1.50;;;;;;;;;;5053714;28;20100;-51
2021/08/07 06:37:26;;;;;;;2.50;1.70;;;;;;;;;;5053572;28;20021;-53
2021/08/07 06:39:52;;;;;;;2.63;1.80;;;;;;;;;;5053695;28;20082;-53
2021/08/07 06:42:18;;;;;;;3.63;2.15;;;;;;;;;;5053860;28;20036;-48
2021/08/07 06:44:47;;;;;;;2.75;2.50;;;;;;;;;;5053440;28;20029;-55
2021/08/07 06:47:15;;;;;;;3.78;2.38;;;;;;;;;;5051727;28;20056;-55
2021/08/07 06:49:41;;;;;;;3.90;1.30;;;;;;;;;;5053392;28;20029;-54
2021/08/07 06:52:08;;;;;;;4.75;1.50;;;;;;;;;;5053652;28;20078;-55
2021/08/07 06:54:34;;;;;;;2.85;1.15;;;;;;;;;;5053449;28;20021;-54
2021/08/07 06:57:02;;;;;;;2.33;1.25;;;;;;;;;;5053343;28;20025;-53
2021/08/07 06:59:28;;;;;;;1.80;1.20;;;;;;;;;;5053415;28;20087;-54
2021/08/07 07:01:54;;;;;;;3.00;1.30;;;;;;;;;;5053535;28;20032;-54
2021/08/07 07:04:20;;;;;;;5.03;1.15;;;;;;;;;;5053245;28;20071;-53
2021/08/07 07:06:46;;;;;;;1.95;1.38;;;;;;;;;;5053564;28;20025;-53
2021/08/07 07:09:13;;;;;;;3.15;1.83;;;;;;;;;;5053626;28;20032;-54
2021/08/07 07:11:39;;;;;;;1.92;1.42;;;;;;;;;;5053249;28;20481;-53
2021/08/07 07:14:05;;;;;;;2.50;1.70;;;;;;;;;;5053383;28;20465;-53
2021/08/07 07:16:32;;;;;;;1.52;1.42;;;;;;;;;;5053371;28;20025;-52
2021/08/07 07:18:58;;;;;;;3.10;1.70;;;;;;;;;;5053181;28;20044;-54
2021/08/07 07:21:24;;;;;;;2.30;1.67;;;;;;;;;;5052035;28;20393;-51
2021/08/07 07:23:50;;;;;;;1.30;1.20;;;;;;;;;;5053067;28;20021;-53
2021/08/07 07:26:16;;;;;;;2.25;1.50;;;;;;;;;;5053080;28;20170;-54
2021/08/07 07:28:42;;;;;;;3.28;1.42;;;;;;;;;;5053164;28;20021;-53
2021/08/07 07:31:08;;;;;;;2.00;1.40;;;;;;;;;;5053409;28;20033;-54
2021/08/07 07:33:35;;;;;;;1.52;1.38;;;;;;;;;;5052862;28;20475;-55
2021/08/07 07:36:01;;;;;;;4.10;1.58;;;;;;;;;;5052824;28;20059;-55
2021/08/07 07:38:27;;;;;;;2.30;1.33;;;;;;;;;;5053006;28;20044;-53
2021/08/07 07:40:54;;;;;;;1.50;1.38;;;;;;;;;;5050713;28;20063;-52
2021/08/07 07:43:21;;;;;;;4.32;1.40;;;;;;;;;;5033246;28;20029;-52
2021/08/07 07:45:47;;;;;;;1.95;1.50;;;;;;;;;;5032944;28;20037;-52
2021/08/07 07:48:13;;;;;;;1.20;1.08;;;;;;;;;;5033317;28;20450;-48
2021/08/07 07:50:42;;;;;;;3.15;1.30;;;;;;;;;;5032919;28;20025;-53
2021/08/07 07:53:08;;;;;;;1.10;1.00;;;;;;;;;;5033062;28;20024;-52
2021/08/07 07:55:34;;;;;;;2.58;1.20;;;;;;;;;;5032939;28;20056;-50
2021/08/07 07:58:00;;;;;;;4.43;1.25;;;;;;;;;;5033175;28;20033;-53
2021/08/07 08:00:27;;;;;;;1.17;1.08;;;;;;;;;;5035117;28;20068;-52
2021/08/07 08:02:53;;;;;;;1.45;1.08;;;;;;;;;;5036615;28;20026;-51
2021/08/07 08:05:19;;;;;;;1.63;1.25;;;;;;;;;;5036094;28;20080;-49
2021/08/07 08:07:46;;;;;;;3.60;0.95;;;;;;;;;;5036503;28;20021;-52
2021/08/07 08:10:15;;;;;;;4.93;1.27;;;;;;;;;;5036894;28;20075;-51
2021/08/07 08:12:41;;;;;;;3.53;1.33;;;;;;;;;;5036485;28;20026;-53
2021/08/07 08:15:08;;;;;;;4.05;1.33;;;;;;;;;;5036357;28;20060;-51
2021/08/07 08:17:37;;;;;;;1.77;1.00;;;;;;;;;;5035988;28;20022;-55
2021/08/07 08:20:06;;;;;;;2.13;1.33;;;;;;;;;;5035053;28;20374;-53
2021/08/07 08:22:33;;;;;;;2.38;1.33;;;;;;;;;;5036276;28;20023;-51
2021/08/07 08:24:59;;;;;;;3.30;1.20;;;;;;;;;;5036058;28;20084;-55
2021/08/07 08:27:27;;;;;;;1.67;1.00;;;;;;;;;;5036207;28;20087;-55
2021/08/07 08:29:56;;;;;;;3.00;1.27;;;;;;;;;;5035990;28;20025;-55
2021/08/07 08:32:23;;;;;;;1.33;1.00;;;;;;;;;;5036089;28;20525;-55
2021/08/07 08:34:49;;;;;;;3.10;1.30;;;;;;;;;;5035972;28;20113;-54
2021/08/07 08:37:15;;;;;;;2.58;1.20;;;;;;;;;;5035978;28;20025;-54
2021/08/07 08:39:43;;;;;;;1.17;0.80;;;;;;;;;;5035787;28;20025;-55
2021/08/07 08:42:11;;;;;;;3.00;1.00;;;;;;;;;;5035995;28;20071;-55
2021/08/07 08:44:38;;;;;;;2.85;1.05;;;;;;;;;;5035890;28;20037;-54
2021/08/07 08:47:06;;;;;;;1.88;1.05;;;;;;;;;;5035989;28;20025;-54
2021/08/07 08:49:33;;;;;;;4.22;1.00;;;;;;;;;;5035745;28;20464;-55
2021/08/07 08:52:00;;;;;;;1.48;1.05;;;;;;;;;;5035713;28;20104;-54
2021/08/07 08:54:29;;;;;;;0.80;0.80;;;;;;;;;;5035706;28;20018;-54
2021/08/07 08:56:57;;;;;;;0.80;0.80;;;;;;;;;;5035453;28;20029;-56
2021/08/07 08:59:24;;;;;;;0.73;0.70;;;;;;;;;;5035587;28;20035;-54
2021/08/07 09:01:51;;;;;;;3.38;0.82;;;;;;;;;;5035502;28;20033;-55
2021/08/07 09:04:18;;;;;;;0.75;0.60;;;;;;;;;;5034994;28;20524;-55
2021/08/07 09:06:44;;;;;;;1.77;0.50;;;;;;;;;;5035010;28;20052;-57
2021/08/07 09:09:11;;;;;;;2.78;0.90;;;;;;;;;;5033935;28;20049;-56
2021/08/07 09:11:39;;;;;;;0.70;0.70;;;;;;;;;;5032324;28;20021;-56
2021/08/07 09:14:24;;;;;;;0.98;0.70;;;;;;;;;;5034780;28;20037;-55
2021/08/07 09:17:10;;;;;;;1.88;0.93;;;;;;;;;;5034058;28;20018;-55
2021/08/07 09:19:39;;;;;;;2.20;0.90;;;;;;;;;;5034563;28;20018;-56
2021/08/07 09:22:12;;;;;;;1.05;0.88;;;;;;;;;;5034690;28;20021;-56
2021/08/07 09:24:57;;;;;;;0.60;0.60;;;;;;;;;;5032320;28;20036;-56
2021/08/07 09:27:44;;;;;;;1.60;0.90;;;;;;;;;;5033058;28;20533;-55
2021/08/07 09:30:19;;;;;;;1.10;0.77;;;;;;;;;;5035191;28;20032;-56
2021/08/07 09:32:46;;;;;;;0.77;0.77;;;;;;;;;;5035284;28;20037;-54
2021/08/07 09:35:13;;;;;;;0.68;0.60;;;;;;;;;;5034863;28;20023;-53
2021/08/07 09:37:39;;;;;;;1.48;0.70;;;;;;;;;;5034608;28;20030;-55
2021/08/07 09:40:06;;;;;;;0.90;0.68;;;;;;;;;;5034276;28;20397;-54
2021/08/07 09:42:33;;;;;;;1.52;0.73;;;;;;;;;;5034195;28;20025;-54
2021/08/07 09:45:09;;;;;;;1.35;0.80;;;;;;;;;;5034132;28;20087;-55
2021/08/07 09:47:41;;;;;;;2.20;0.90;;;;;;;;;;5034075;28;20513;-54
2021/08/07 09:50:21;;;;;;;1.10;0.82;;;;;;;;;;5034178;28;20029;-54
2021/08/07 09:52:47;;;;;;;2.15;0.63;;;;;;;;;;5031611;28;20014;-55
2021/08/07 09:55:13;;;;;;;1.92;0.82;;;;;;;;;;5033938;28;20581;-54
2021/08/07 09:57:39;;;;;;;0.93;0.80;;;;;;;;;;5034063;28;20025;-51
2021/08/07 10:00:06;;;;;;;1.60;0.73;;;;;;;;;;5033555;28;20053;-54
2021/08/07 10:02:33;;;;;;;1.60;0.70;;;;;;;;;;5033979;28;20541;-55
2021/08/07 10:04:59;;;;;;;3.65;0.82;;;;;;;;;;5033577;28;20037;-55
2021/08/07 10:07:26;;;;;;;2.83;0.88;;;;;;;;;;5033939;28;20025;-54
2021/08/07 10:09:52;;;;;;;1.20;0.70;;;;;;;;;;5033802;28;20028;-57
2021/08/07 10:12:18;;;;;;;0.70;0.70;;;;;;;;;;5033585;28;20057;-51
2021/08/07 10:14:44;;;;;;;1.58;1.02;;;;;;;;;;5033551;28;20063;-55
2021/08/07 10:17:12;;;;;;;0.70;0.70;;;;;;;;;;5033873;28;20025;-54
2021/08/07 10:19:38;;;;;;;0.50;0.50;;;;;;;;;;5030841;28;21082;-47
2021/08/07 10:22:07;;;;;;;1.83;0.70;;;;;;;;;;5033122;28;20022;-52
2021/08/07 10:24:34;;;;;;;0.50;0.50;;;;;;;;;;5033973;28;20034;-56
2021/08/07 10:27:01;;;;;;;1.10;0.70;;;;;;;;;;5033668;28;20025;-55
2021/08/07 10:29:33;;;;;;;3.60;1.05;;;;;;;;;;5033797;28;20088;-55
2021/08/07 10:31:59;;;;;;;0.98;0.70;;;;;;;;;;5034250;28;20351;-54
2021/08/07 10:34:25;;;;;;;0.73;0.70;;;;;;;;;;5033802;28;20033;-55
2021/08/07 10:36:51;;;;;;;1.30;0.68;;;;;;;;;;5033654;28;20036;-53
2021/08/07 10:39:17;;;;;;;1.92;0.70;;;;;;;;;;5033606;28;20022;-53
2021/08/07 10:41:44;;;;;;;7.35;1.17;;;;;;;;;;5033499;28;20502;-53
2021/08/07 10:44:11;;;;;;;1.30;0.65;;;;;;;;;;5033688;28;20070;-65
2021/08/07 10:46:37;;;;;;;1.27;0.57;;;;;;;;;;5033538;28;20033;-60
2021/08/07 10:49:08;;;;;;;7.97;1.63;;;;;;;;;;5033358;28;20017;-61
2021/08/07 10:51:38;;;;;;;2.55;0.63;;;;;;;;;;5033210;28;20367;-60
2021/08/07 10:54:06;;;;;;;0.83;0.83;;;;;;;;;;5033330;28;20037;-62
2021/08/07 10:56:32;;;;;;;1.83;1.25;;;;;;;;;;5033403;28;20255;-61
2021/08/07 10:59:10;;;;;;;2.05;0.75;;;;;;;;;;5033562;28;20108;-65
2021/08/07 11:01:37;;;;;;;1.83;0.70;;;;;;;;;;5033423;28;20343;-57
2021/08/07 11:04:05;;;;;;;0.95;0.80;;;;;;;;;;5033303;28;20105;-57
2021/08/07 11:06:43;;;;;;;2.70;0.98;;;;;;;;;;5033163;28;20105;-55
2021/08/07 11:09:15;;;;;;;8.68;5.82;;;;;;;;;;5033163;28;20393;-52
2021/08/07 11:11:42;;;;;;;1.45;0.95;;;;;;;;;;5033525;28;20029;-53
2021/08/07 11:14:26;;;;;;;4.43;0.88;;;;;;;;;;5033175;28;20026;-54
2021/08/07 11:17:04;;;;;;;1.45;1.05;;;;;;;;;;5033125;28;20104;-54
2021/08/07 11:19:49;;;;;;;1.42;0.90;;;;;;;;;;5032752;28;20053;-56
2021/08/07 11:22:15;;;;;;;1.55;1.33;;;;;;;;;;5033154;28;20045;-58
2021/08/07 11:24:44;;;;;;;2.00;1.33;;;;;;;;;;5032967;28;20037;-62
2021/08/07 11:27:11;;;;;;;1.25;0.80;;;;;;;;;;5033122;28;20029;-62
2021/08/07 11:30:16;;;;;;;1.95;0.77;;;;;;;;;;5032924;28;20038;-62
2021/08/07 11:32:42;;;;;;;1.35;1.17;;;;;;;;;;5011216;28;20566;-51
2021/08/07 11:35:09;;;;;;;0.80;0.80;;;;;;;;;;5014850;28;20058;-59
2021/08/07 11:37:35;;;;;;;3.78;1.15;;;;;;;;;;5015373;28;20125;-54
2021/08/07 11:40:11;;;;;;;2.15;1.73;;;;;;;;;;5015077;28;20053;-58
2021/08/07 11:42:45;;;;;;;3.60;1.67;;;;;;;;;;5015026;28;20438;-58
2021/08/07 11:45:15;;;;;;;2.55;1.00;;;;;;;;;;5015122;28;20457;-65
2021/08/07 11:47:45;;;;;;;2.22;0.82;;;;;;;;;;5015065;28;20446;-66
2021/08/07 11:50:12;;;;;;;1.65;1.13;;;;;;;;;;5014911;28;20065;-64
2021/08/07 11:52:38;;;;;;;2.45;0.90;;;;;;;;;;5014959;28;20026;-62
2021/08/07 11:55:05;;;;;;;3.95;0.80;;;;;;;;;;5014811;28;20029;-67
2021/08/07 11:57:31;;;;;;;2.78;1.05;;;;;;;;;;5014984;28;20053;-65
2021/08/07 12:00:15;;;;;;;1.27;1.13;;;;;;;;;;5014667;28;20077;-62
2021/08/07 12:02:44;;;;;;;0.82;0.80;;;;;;;;;;5019319;28;20037;-61
2021/08/07 12:05:10;;;;;;;2.33;1.00;;;;;;;;;;5036906;28;20037;-66
2021/08/07 12:07:36;;;;;;;1.60;0.93;;;;;;;;;;5036482;28;20021;-59
2021/08/07 12:10:10;;;;;;;2.58;1.08;;;;;;;;;;5036489;28;20469;-57
2021/08/07 12:12:44;;;;;;;3.53;1.10;;;;;;;;;;5036752;28;20057;-55
2021/08/07 12:15:10;;;;;;;1.95;1.00;;;;;;;;;;5036213;28;20017;-57
2021/08/07 12:17:44;;;;;;;0.90;0.85;;;;;;;;;;5035116;28;20033;-59
2021/08/07 12:20:11;;;;;;;1.27;0.90;;;;;;;;;;5035931;28;20116;-60
2021/08/07 12:22:52;;;;;;;2.30;0.93;;;;;;;;;;5036340;28;20028;-58
2021/08/07 12:25:22;;;;;;;1.63;1.05;;;;;;;;;;5036095;28;20083;-56
2021/08/07 12:28:03;;;;;;;1.40;1.08;;;;;;;;;;5036331;28;20026;-59
2021/08/07 12:30:29;;;;;;;1.05;0.95;;;;;;;;;;5036101;28;20099;-46
2021/08/07 12:33:16;;;;;;;1.88;0.82;;;;;;;;;;5036058;28;20470;-60
2021/08/07 12:35:42;;;;;;;1.00;0.90;;;;;;;;;;5036104;28;20113;-51
2021/08/07 12:38:16;;;;;;;1.50;0.95;;;;;;;;;;5035960;28;20025;-55
2021/08/07 12:40:43;;;;;;;3.88;1.10;;;;;;;;;;5035755;28;20021;-56
2021/08/07 12:43:10;;;;;;;2.38;1.00;;;;;;;;;;5034440;28;20048;-54
2021/08/07 12:45:36;;;;;;;1.02;0.73;;;;;;;;;;5034673;28;20051;-58
2021/08/07 12:48:05;;;;;;;1.15;0.80;;;;;;;;;;5035722;28;20017;-57
2021/08/07 12:50:31;;;;;;;3.38;0.95;;;;;;;;;;5035557;28;20025;-56
2021/08/07 12:52:58;;;;;;;1.23;0.93;;;;;;;;;;5036017;28;20560;-58
2021/08/07 12:55:27;;;;;;;1.52;1.00;;;;;;;;;;5035718;28;20025;-58
2021/08/07 12:58:09;;;;;;;1.20;1.08;;;;;;;;;;5035639;28;20148;-59
2021/08/07 13:00:35;;;;;;;3.10;1.00;;;;;;;;;;5034221;28;20397;-56
2021/08/07 13:03:08;;;;;;;2.60;1.30;;;;;;;;;;5035634;28;20036;-59
2021/08/07 13:05:35;;;;;;;3.08;1.13;;;;;;;;;;5035414;28;20037;-58
2021/08/07 13:08:21;;;;;;;3.58;1.13;;;;;;;;;;5035287;28;20540;-59
2021/08/07 13:10:47;;;;;;;4.85;1.10;;;;;;;;;;5034911;28;20433;-58
2021/08/07 13:13:13;;;;;;;1.02;0.80;;;;;;;;;;5035391;28;20044;-59
2021/08/07 13:15:47;;;;;;;3.95;1.10;;;;;;;;;;5035434;28;20029;-58
2021/08/07 13:18:14;;;;;;;2.75;1.30;;;;;;;;;;5035157;28;20429;-56
2021/08/07 13:20:41;;;;;;;2.22;1.08;;;;;;;;;;5035045;28;20030;-58
2021/08/07 13:23:08;;;;;;;1.23;1.00;;;;;;;;;;5034999;28;20018;-57
2021/08/07 13:25:34;;;;;;;6.53;1.63;;;;;;;;;;5035114;28;20179;-58
2021/08/07 13:28:11;;;;;;;3.42;0.90;;;;;;;;;;5035091;28;20028;-59
2021/08/07 13:30:45;;;;;;;1.63;1.10;;;;;;;;;;5034991;28;20025;-57
2021/08/07 13:33:11;;;;;;;1.00;0.90;;;;;;;;;;5034847;28;20026;-58
2021/08/07 13:35:39;;;;;;;3.45;1.00;;;;;;;;;;5033559;28;20018;-58
2021/08/07 13:38:05;;;;;;;0.80;0.70;;;;;;;;;;5034796;28;20022;-56
2021/08/07 13:40:32;;;;;;;1.00;0.90;;;;;;;;;;5035218;28;20032;-57
2021/08/07 13:42:59;;;;;;;1.10;1.00;;;;;;;;;;5035001;28;20064;-56
2021/08/07 13:45:25;;;;;;;2.80;1.00;;;;;;;;;;5034674;28;20044;-53
2021/08/07 13:47:51;;;;;;;1.10;0.90;;;;;;;;;;5034602;28;20014;-54
2021/08/07 13:50:17;;;;;;;1.08;1.00;;;;;;;;;;5034544;28;20025;-55
2021/08/07 13:52:44;;;;;;;2.55;2.25;;;;;;;;;;5034355;28;20029;-57
2021/08/07 13:55:10;;;;;;;2.10;0.93;;;;;;;;;;5034656;28;20056;-55
2021/08/07 13:57:36;;;;;;;3.10;1.08;;;;;;;;;;5034471;28;20531;-54
2021/08/07 14:00:03;;;;;;;2.35;1.30;;;;;;;;;;5034337;28;20057;-56
2021/08/07 14:02:32;;;;;;;2.53;0.85;;;;;;;;;;5034377;28;20029;-54
2021/08/07 14:04:58;;;;;;;3.92;1.15;;;;;;;;;;5034376;28;20048;-53
2021/08/07 14:07:24;;;;;;;3.50;0.95;;;;;;;;;;5034274;28;20029;-56
2021/08/07 14:09:50;;;;;;;2.70;1.60;;;;;;;;;;5034162;28;20040;-51
2021/08/07 14:12:16;;;;;;;3.42;1.02;;;;;;;;;;5034472;28;20033;-56
2021/08/07 14:14:43;;;;;;;3.80;1.13;;;;;;;;;;5034132;28;20108;-53
2021/08/07 14:17:09;;;;;;;4.03;1.10;;;;;;;;;;5034034;28;20028;-54
2021/08/07 14:19:35;;;;;;;1.63;0.90;;;;;;;;;;5034089;28;20033;-51
2021/08/07 14:22:01;;;;;;;3.40;0.80;;;;;;;;;;5033926;28;20054;-55
2021/08/07 14:24:27;;;;;;;4.80;1.10;;;;;;;;;;5034131;28;20088;-51
2021/08/07 14:26:53;;;;;;;2.15;0.98;;;;;;;;;;5033868;28;20108;-48
2021/08/07 14:29:20;;;;;;;1.90;0.90;;;;;;;;;;5033841;28;20490;-54
2021/08/07 14:31:47;;;;;;;3.90;1.00;;;;;;;;;;5033697;28;20029;-51
2021/08/07 14:34:13;;;;;;;0.98;0.90;;;;;;;;;;5033666;28;20022;-57
2021/08/07 14:36:39;;;;;;;3.80;0.93;;;;;;;;;;5033486;28;20071;-50
2021/08/07 14:39:06;;;;;;;4.15;1.08;;;;;;;;;;5033827;28;20096;-54
2021/08/07 14:41:32;;;;;;;1.42;0.82;;;;;;;;;;5033678;28;20075;-55
2021/08/07 14:43:58;;;;;;;0.80;0.80;;;;;;;;;;5033552;28;20024;-54